createdAt,value
2023-04-12T00:00:52.771Z,2.88
2023-04-12T00:03:21.451Z,3.20
2023-04-12T00:05:48.850Z,3.13
2023-04-12T00:08:16.772Z,3.20
2023-04-12T00:10:43.524Z,3.22
2023-04-12T00:13:10.186Z,2.97
2023-04-12T00:15:36.951Z,2.85
2023-04-12T00:18:03.733Z,2.00
2023-04-12T00:20:30.348Z,2.63
2023-04-12T00:22:57.679Z,2.60
2023-04-12T00:25:24.435Z,3.70
2023-04-12T00:27:51.360Z,3.40
2023-04-12T00:30:18.069Z,3.50
2023-04-12T00:32:44.701Z,4.45
2023-04-12T00:35:11.331Z,3.90
2023-04-12T00:37:38.772Z,4.18
2023-04-12T00:40:09.196Z,4.85
2023-04-12T00:42:38.422Z,4.07
2023-04-12T00:45:06.790Z,5.10
2023-04-12T00:47:36.601Z,4.00
2023-04-12T00:50:05.845Z,4.70
2023-04-12T00:52:36.252Z,4.28
2023-04-12T00:55:07.455Z,3.72
2023-04-12T00:57:37.732Z,4.38
2023-04-12T01:00:11.225Z,3.85
2023-04-12T01:02:39.425Z,5.25
2023-04-12T01:05:07.429Z,4.78
2023-04-12T01:08:05.009Z,2.97
2023-04-12T01:10:55.553Z,3.30
2023-04-12T01:13:32.436Z,5.18
2023-04-12T01:16:07.535Z,5.47
2023-04-12T01:18:40.900Z,4.63
2023-04-12T01:21:16.580Z,6.00
2023-04-12T01:24:06.726Z,3.60
2023-04-12T01:26:37.151Z,3.55
2023-04-12T01:29:11.759Z,3.47
2023-04-12T01:31:41.630Z,3.88
2023-04-12T01:34:11.592Z,3.35
2023-04-12T01:36:39.837Z,3.28
2023-04-12T01:39:07.860Z,3.33
2023-04-12T01:41:39.977Z,3.15
2023-04-12T01:44:06.685Z,2.90
2023-04-12T01:46:34.465Z,2.50
2023-04-12T01:49:01.551Z,2.33
2023-04-12T01:51:42.223Z,2.55
2023-04-12T01:54:11.909Z,2.88
2023-04-12T01:56:45.291Z,2.50
2023-04-12T02:01:41.025Z,2.60
2023-04-12T02:04:09.548Z,2.30
2023-04-12T02:06:37.653Z,3.20
2023-04-12T02:09:07.878Z,2.55
2023-04-12T02:11:34.801Z,2.30
2023-04-12T02:14:01.298Z,2.63
2023-04-12T02:16:29.316Z,2.22
2023-04-12T02:18:57.426Z,2.47
2023-04-12T02:21:27.814Z,2.65
2023-04-12T02:23:54.693Z,2.80
2023-04-12T02:26:23.327Z,3.67
2023-04-12T02:28:49.889Z,3.63
2023-04-12T02:31:17.039Z,4.43
2023-04-12T02:33:43.923Z,4.50
2023-04-12T02:36:11.395Z,4.45
2023-04-12T02:38:37.958Z,4.78
2023-04-12T02:41:04.557Z,3.95
2023-04-12T02:43:32.619Z,4.72
2023-04-12T02:45:59.228Z,4.95
2023-04-12T02:48:26.034Z,5.38
2023-04-12T02:50:52.592Z,5.07
2023-04-12T02:53:19.039Z,5.40
2023-04-12T02:55:45.501Z,5.65
2023-04-12T02:58:12.838Z,6.72
2023-04-12T03:00:39.309Z,5.00
2023-04-12T03:03:06.567Z,5.10
2023-04-12T03:05:33.394Z,5.38
2023-04-12T03:07:59.861Z,5.90
2023-04-12T03:10:26.344Z,6.35
2023-04-12T03:12:52.846Z,5.00
2023-04-12T03:15:19.431Z,4.82
2023-04-12T03:17:46.067Z,4.72
2023-04-12T03:20:13.484Z,4.55
2023-04-12T03:22:40.005Z,5.32
2023-04-12T03:25:07.014Z,6.13
2023-04-12T03:27:33.503Z,6.60
2023-04-12T03:30:00.422Z,7.32
2023-04-12T03:32:26.924Z,6.38
2023-04-12T03:34:53.479Z,6.07
2023-04-12T03:37:19.993Z,5.93
2023-04-12T03:39:48.197Z,5.43
2023-04-12T03:42:25.895Z,9.55
2023-04-12T03:44:59.228Z,10.07
2023-04-12T03:47:25.955Z,7.88
2023-04-12T03:52:31.433Z,5.85
2023-04-12T03:54:57.932Z,5.35
2023-04-12T03:57:24.429Z,5.68
2023-04-12T03:59:52.006Z,5.35
2023-04-12T04:02:18.711Z,6.40
2023-04-12T04:04:46.016Z,6.10
2023-04-12T04:07:12.613Z,5.72
2023-04-12T04:09:39.226Z,5.53
2023-04-12T04:12:05.927Z,5.53
2023-04-12T04:14:34.788Z,6.45
2023-04-12T04:17:01.226Z,6.50
2023-04-12T04:19:27.690Z,7.70
2023-04-12T04:21:56.826Z,8.73
2023-04-12T04:24:25.194Z,6.97
2023-04-12T04:26:54.317Z,5.55
2023-04-12T04:29:20.969Z,5.63
2023-04-12T04:31:48.527Z,6.35
2023-04-12T04:34:16.228Z,7.05
2023-04-12T04:36:43.721Z,6.07
2023-04-12T04:39:10.356Z,4.93
2023-04-12T04:41:39.624Z,4.85
2023-04-12T04:44:09.366Z,5.40
2023-04-12T04:46:39.688Z,6.03
2023-04-12T04:49:06.549Z,6.28
2023-04-12T04:51:33.301Z,6.95
2023-04-12T04:54:00.301Z,7.47
2023-04-12T04:56:26.893Z,8.50
2023-04-12T04:58:56.307Z,9.18
2023-04-12T05:01:28.627Z,7.70
2023-04-12T05:03:55.799Z,7.22
2023-04-12T05:06:23.047Z,7.85
2023-04-12T05:08:49.559Z,8.93
2023-04-12T05:11:16.292Z,8.52
2023-04-12T05:13:42.819Z,9.35
2023-04-12T05:16:09.666Z,10.02
2023-04-12T05:18:36.322Z,9.13
2023-04-12T05:21:06.071Z,8.20
2023-04-12T05:23:37.726Z,7.90
2023-04-12T05:26:04.893Z,6.82
2023-04-12T05:28:31.728Z,6.68
2023-04-12T05:30:58.581Z,10.43
2023-04-12T05:33:25.452Z,9.02
2023-04-12T05:35:52.040Z,9.43
2023-04-12T05:38:18.746Z,7.85
2023-04-12T05:40:45.250Z,6.38
2023-04-12T05:43:12.981Z,7.10
2023-04-12T05:45:40.651Z,7.35
2023-04-12T05:48:07.429Z,6.68
2023-04-12T05:50:34.068Z,6.55
2023-04-12T05:53:01.820Z,7.03
2023-04-12T05:55:29.200Z,6.18
2023-04-12T05:57:55.633Z,6.43
2023-04-12T06:00:23.549Z,6.43
2023-04-12T06:02:50.677Z,6.18
2023-04-12T06:05:18.222Z,5.10
2023-04-12T06:07:48.824Z,5.18
2023-04-12T06:10:17.254Z,6.70
2023-04-12T06:12:44.115Z,5.88
2023-04-12T06:15:11.020Z,5.47
2023-04-12T06:17:38.247Z,5.70
2023-04-12T06:20:08.181Z,5.53
2023-04-12T06:22:35.534Z,5.75
2023-04-12T06:25:02.231Z,5.07
2023-04-12T06:27:28.672Z,5.90
2023-04-12T06:29:55.160Z,5.30
2023-04-12T06:32:22.328Z,4.82
2023-04-12T06:34:48.866Z,5.00
2023-04-12T06:37:15.990Z,5.20
2023-04-12T06:39:42.639Z,4.28
2023-04-12T06:42:09.133Z,4.07
2023-04-12T06:44:36.754Z,3.80
2023-04-12T06:47:03.583Z,4.65
2023-04-12T06:49:30.126Z,4.88
2023-04-12T06:51:56.611Z,4.75
2023-04-12T06:54:24.054Z,4.47
2023-04-12T06:56:50.752Z,4.68
2023-04-12T06:59:17.702Z,5.60
2023-04-12T07:01:44.451Z,5.00
2023-04-12T07:04:14.320Z,4.95
2023-04-12T07:06:40.984Z,4.68
2023-04-12T07:09:07.503Z,4.40
2023-04-12T07:11:34.127Z,5.25
2023-04-12T07:14:00.668Z,4.90
2023-04-12T07:16:31.073Z,4.50
2023-04-12T07:18:57.704Z,5.65
2023-04-12T07:21:24.264Z,6.20
2023-04-12T07:23:51.741Z,5.97
2023-04-12T07:26:21.891Z,5.47
2023-04-12T07:28:48.559Z,5.40
2023-04-12T07:31:15.436Z,5.63
2023-04-12T07:33:43.294Z,5.53
2023-04-12T07:36:11.525Z,5.43
2023-04-12T07:38:38.214Z,5.70
2023-04-12T07:41:04.970Z,6.28
2023-04-12T07:43:31.488Z,4.63
2023-04-12T07:45:58.922Z,5.25
2023-04-12T07:48:25.489Z,4.28
2023-04-12T07:50:52.068Z,4.57
2023-04-12T07:53:29.146Z,4.47
2023-04-12T07:55:56.697Z,4.43
2023-04-12T07:58:24.866Z,4.85
2023-04-12T08:00:51.903Z,5.50
2023-04-12T08:03:19.240Z,5.00
2023-04-12T08:05:47.139Z,5.20
2023-04-12T08:08:13.639Z,5.32
2023-04-12T08:10:40.406Z,4.57
2023-04-12T08:13:07.333Z,4.18
2023-04-12T08:15:33.986Z,4.43
2023-04-12T08:18:01.375Z,4.40
2023-04-12T08:20:27.983Z,4.10
2023-04-12T08:22:54.975Z,4.75
2023-04-12T08:25:22.267Z,4.57
2023-04-12T08:27:50.401Z,4.75
2023-04-12T08:30:17.662Z,5.35
2023-04-12T08:32:44.462Z,5.43
2023-04-12T08:35:12.184Z,5.15
2023-04-12T08:37:38.887Z,5.78
2023-04-12T08:40:07.903Z,5.50
2023-04-12T08:42:35.247Z,5.55
2023-04-12T08:45:08.699Z,4.63
2023-04-12T08:47:38.046Z,4.85
2023-04-12T08:50:09.253Z,4.97
2023-04-12T08:52:37.700Z,4.38
2023-04-12T08:55:06.003Z,5.20
2023-04-12T08:57:32.754Z,6.20
2023-04-12T09:00:04.396Z,5.50
2023-04-12T09:02:31.538Z,5.50
2023-04-12T09:04:58.514Z,4.47
2023-04-12T09:07:28.180Z,4.63
2023-04-12T09:09:55.158Z,4.22
2023-04-12T09:12:24.208Z,5.05
2023-04-12T09:15:13.408Z,5.30
2023-04-12T09:17:41.498Z,5.55
2023-04-12T09:20:21.907Z,5.25
2023-04-12T09:22:48.868Z,5.70
2023-04-12T09:25:15.988Z,5.75
2023-04-12T09:27:50.832Z,6.03
2023-04-12T09:30:19.057Z,5.60
2023-04-12T09:32:45.677Z,4.40
2023-04-12T09:35:12.456Z,2.83
2023-04-12T09:37:39.148Z,3.60
2023-04-12T09:40:10.273Z,5.53
2023-04-12T09:42:51.323Z,5.65
2023-04-12T09:45:26.061Z,4.72
2023-04-12T09:47:53.778Z,4.55
2023-04-12T09:50:33.386Z,4.88
2023-04-12T09:53:02.337Z,5.13
2023-04-12T09:55:31.946Z,4.70
2023-04-12T09:58:02.306Z,4.47
2023-04-12T10:00:30.805Z,4.47
2023-04-12T10:02:57.715Z,3.97
2023-04-12T10:05:26.596Z,3.90
2023-04-12T10:07:55.279Z,3.70
2023-04-12T10:10:22.751Z,3.45
2023-04-12T10:12:49.500Z,4.40
2023-04-12T10:15:21.251Z,4.72
2023-04-12T10:17:55.074Z,5.05
2023-04-12T10:20:24.805Z,4.97
2023-04-12T10:22:54.126Z,4.57
2023-04-12T10:25:22.402Z,4.70
2023-04-12T10:27:49.095Z,4.60
2023-04-12T10:30:29.798Z,5.72
2023-04-12T10:33:02.447Z,4.07
2023-04-12T10:35:54.581Z,4.32
2023-04-12T10:38:23.247Z,3.90
2023-04-12T10:41:19.946Z,3.80
2023-04-12T10:43:52.774Z,3.30
2023-04-12T10:46:38.168Z,1.58
2023-04-12T10:49:11.896Z,0.95
2023-04-12T10:51:41.048Z,0.90
2023-04-12T10:54:07.554Z,1.13
2023-04-12T10:56:42.198Z,1.00
2023-04-12T10:59:12.357Z,0.60
2023-04-12T11:01:39.891Z,0.70
2023-04-12T11:04:12.481Z,1.20
2023-04-12T11:06:59.834Z,0.68
2023-04-12T11:09:37.279Z,0.95
2023-04-12T11:12:03.698Z,0.93
2023-04-12T11:14:47.145Z,0.85
2023-04-12T11:17:13.743Z,0.98
2023-04-12T11:19:42.762Z,1.00
2023-04-12T11:22:12.272Z,0.60
2023-04-12T11:24:59.976Z,0.60
2023-04-12T11:27:28.004Z,0.85
2023-04-12T11:30:01.952Z,0.80
2023-04-12T11:32:30.978Z,0.55
2023-04-12T11:34:58.270Z,0.80
2023-04-12T11:37:27.259Z,0.88
2023-04-12T11:39:57.070Z,1.00
2023-04-12T11:42:25.617Z,1.17
2023-04-12T11:44:58.622Z,0.70
2023-04-12T11:47:27.575Z,0.63
2023-04-12T11:49:57.145Z,0.68
2023-04-12T11:52:32.057Z,0.70
2023-04-12T11:55:06.633Z,0.50
2023-04-12T11:57:35.531Z,0.60
2023-04-12T12:00:06.001Z,0.55
2023-04-12T12:02:41.252Z,0.50
2023-04-12T12:05:16.552Z,0.90
2023-04-12T12:07:43.560Z,0.50
2023-04-12T12:10:10.734Z,0.60
2023-04-12T12:12:37.285Z,0.57
2023-04-12T12:15:04.151Z,0.50
2023-04-12T12:17:35.787Z,0.80
2023-04-12T12:20:04.530Z,0.70
2023-04-12T12:22:31.114Z,0.75
2023-04-12T12:24:59.378Z,0.90
2023-04-12T12:27:34.086Z,0.70
2023-04-12T12:30:02.378Z,0.50
2023-04-12T12:32:37.395Z,0.50
2023-04-12T12:35:09.503Z,0.30
2023-04-12T12:37:36.462Z,0.60
2023-04-12T12:40:13.484Z,0.60
2023-04-12T12:42:47.052Z,0.40
2023-04-12T12:45:14.451Z,0.38
2023-04-12T12:47:53.070Z,0.50
2023-04-12T12:50:24.640Z,0.57
2023-04-12T12:52:52.120Z,0.50
2023-04-12T12:55:19.025Z,0.50
2023-04-12T12:58:01.715Z,0.60
2023-04-12T13:00:33.001Z,0.47
2023-04-12T13:02:59.811Z,0.20
2023-04-12T13:05:26.756Z,0.15
2023-04-12T13:07:53.265Z,0.38
2023-04-12T13:10:19.755Z,0.13
2023-04-12T13:12:46.401Z,0.20
2023-04-12T13:15:22.345Z,0.32
2023-04-12T13:17:52.255Z,0.30
2023-04-12T13:20:18.974Z,0.30
2023-04-12T13:22:45.546Z,0.30
2023-04-12T13:25:12.040Z,0.30
2023-04-12T13:27:38.591Z,0.32
2023-04-12T13:30:06.376Z,0.40
2023-04-12T13:32:32.951Z,0.40
2023-04-12T13:34:59.492Z,0.30
2023-04-12T13:37:26.012Z,0.28
2023-04-12T13:39:52.842Z,0.45
2023-04-12T13:42:19.325Z,0.47
2023-04-12T13:44:45.907Z,0.25
2023-04-12T13:47:12.584Z,0.28
2023-04-12T13:49:39.191Z,0.40
2023-04-12T13:52:05.751Z,0.20
2023-04-12T13:54:32.322Z,0.40
2023-04-12T13:56:59.324Z,0.30
2023-04-12T13:59:26.677Z,0.40
2023-04-12T14:01:54.197Z,0.30
2023-04-12T14:04:20.998Z,0.30
2023-04-12T14:06:47.557Z,0.30
2023-04-12T14:09:28.042Z,0.30
2023-04-12T14:11:56.223Z,0.30
2023-04-12T14:14:23.281Z,0.30
2023-04-12T14:16:56.939Z,0.35
2023-04-12T14:19:24.599Z,0.20
2023-04-12T14:21:51.783Z,0.43
2023-04-12T14:24:19.823Z,0.30
2023-04-12T14:26:46.627Z,0.20
2023-04-12T14:29:13.624Z,0.60
2023-04-12T14:31:40.644Z,0.38
2023-04-12T14:34:08.804Z,0.20
2023-04-12T14:36:35.912Z,0.20
2023-04-12T14:39:04.046Z,0.30
2023-04-12T14:41:31.646Z,0.20
2023-04-12T14:43:59.986Z,0.20
2023-04-12T14:46:28.313Z,0.40
2023-04-12T14:48:55.537Z,0.28
2023-04-12T14:51:23.166Z,0.30
2023-04-12T14:53:49.916Z,0.60
2023-04-12T14:56:21.027Z,0.35
2023-04-12T14:58:48.916Z,0.30
2023-04-12T15:01:18.323Z,0.50
2023-04-12T15:03:45.841Z,0.30
2023-04-12T15:06:13.610Z,0.30
2023-04-12T15:08:43.216Z,0.20
2023-04-12T15:11:11.122Z,0.20
2023-04-12T15:13:42.003Z,0.30
2023-04-12T15:16:09.332Z,0.30
2023-04-12T15:18:41.799Z,0.40
2023-04-12T15:21:10.486Z,0.60
2023-04-12T15:23:38.117Z,0.50
2023-04-12T15:26:06.749Z,0.32
2023-04-12T15:28:33.425Z,0.68
2023-04-12T15:31:01.000Z,0.40
2023-04-12T15:33:28.353Z,0.68
2023-04-12T15:35:57.970Z,0.57
2023-04-12T15:38:24.885Z,0.40
2023-04-12T15:41:00.239Z,0.40
2023-04-12T15:43:28.088Z,0.50
2023-04-12T15:45:55.145Z,0.35
2023-04-12T15:48:23.315Z,0.25
2023-04-12T15:50:51.199Z,0.20
2023-04-12T15:53:21.338Z,0.40
2023-04-12T15:55:48.485Z,0.40
2023-04-12T15:58:15.117Z,0.55
2023-04-12T16:00:42.395Z,0.60
2023-04-12T16:03:09.233Z,0.50
2023-04-12T16:05:36.431Z,0.35
2023-04-12T16:08:03.501Z,0.30
2023-04-12T16:10:30.336Z,0.30
2023-04-12T16:12:57.338Z,0.20
2023-04-12T16:15:24.105Z,0.20
2023-04-12T16:17:54.583Z,0.30
2023-04-12T16:20:22.285Z,0.40
2023-04-12T16:22:50.537Z,0.40
2023-04-12T16:25:17.086Z,0.40
2023-04-12T16:27:45.050Z,0.30
2023-04-12T16:30:12.886Z,0.32
2023-04-12T16:32:39.556Z,0.60
2023-04-12T16:35:06.858Z,0.40
2023-04-12T16:37:33.433Z,0.35
2023-04-12T16:40:00.630Z,0.35
2023-04-12T16:42:31.865Z,0.90
2023-04-12T16:44:58.969Z,0.40
2023-04-12T16:47:26.831Z,0.52
2023-04-12T16:49:53.374Z,0.45
2023-04-12T16:52:19.969Z,1.00
2023-04-12T16:54:47.832Z,0.52
2023-04-12T16:57:14.414Z,0.50
2023-04-12T16:59:42.405Z,0.50
2023-04-12T17:02:09.071Z,0.45
2023-04-12T17:04:35.843Z,0.45
2023-04-12T17:07:02.489Z,0.40
2023-04-12T17:09:29.307Z,0.35
2023-04-12T17:11:56.612Z,0.63
2023-04-12T17:14:23.078Z,0.50
2023-04-12T17:16:49.535Z,0.60
2023-04-12T17:19:16.030Z,0.65
2023-04-12T17:21:42.783Z,0.60
2023-04-12T17:24:10.809Z,0.70
2023-04-12T17:26:37.798Z,0.70
2023-04-12T17:29:06.152Z,0.68
2023-04-12T17:31:37.004Z,0.68
2023-04-12T17:34:03.792Z,0.40
2023-04-12T17:36:33.931Z,0.68
2023-04-12T17:39:04.544Z,0.40
2023-04-12T17:41:31.453Z,0.40
2023-04-12T17:43:59.442Z,0.40
2023-04-12T17:46:26.514Z,0.60
2023-04-12T17:48:53.357Z,0.55
2023-04-12T17:51:19.886Z,0.60
2023-04-12T17:53:46.492Z,1.52
2023-04-12T17:56:13.298Z,1.00
2023-04-12T17:58:39.796Z,0.80
2023-04-12T18:01:06.731Z,0.77
2023-04-12T18:03:34.403Z,0.80
2023-04-12T18:06:01.127Z,0.40
2023-04-12T18:08:28.404Z,0.50
2023-04-12T18:10:54.911Z,0.63
2023-04-12T18:13:21.813Z,0.50
2023-04-12T18:15:48.609Z,0.70
2023-04-12T18:18:15.125Z,0.50
2023-04-12T18:20:41.620Z,0.65
2023-04-12T18:23:08.342Z,0.90
2023-04-12T18:25:34.920Z,0.50
2023-04-12T18:28:02.066Z,0.50
2023-04-12T18:30:28.646Z,0.52
2023-04-12T18:32:55.434Z,0.80
2023-04-12T18:35:21.976Z,0.60
2023-04-12T18:37:48.517Z,0.60
2023-04-12T18:40:16.049Z,0.70
2023-04-12T18:42:46.063Z,0.70
2023-04-12T18:45:12.579Z,0.70
2023-04-12T18:47:40.014Z,0.93
2023-04-12T18:50:07.154Z,1.00
2023-04-12T18:52:34.698Z,0.60
2023-04-12T18:55:01.336Z,0.80
2023-04-12T18:57:27.874Z,0.57
2023-04-12T18:59:54.910Z,0.80
2023-04-12T19:02:21.606Z,0.50
2023-04-12T19:04:48.283Z,0.60
2023-04-12T19:07:16.251Z,0.50
2023-04-12T19:09:44.345Z,0.57
2023-04-12T19:12:11.713Z,0.50
2023-04-12T19:14:38.685Z,0.63
2023-04-12T19:17:05.494Z,0.50
2023-04-12T19:19:32.292Z,0.30
2023-04-12T19:22:00.131Z,0.60
2023-04-12T19:24:28.612Z,0.85
2023-04-12T19:26:56.877Z,0.40
2023-04-12T19:29:25.746Z,0.30
2023-04-12T19:31:54.717Z,0.60
2023-04-12T19:34:22.749Z,0.52
2023-04-12T19:36:49.662Z,0.55
2023-04-12T19:39:18.194Z,0.60
2023-04-12T19:41:49.281Z,0.70
2023-04-12T19:44:16.110Z,0.93
2023-04-12T19:46:43.600Z,0.90
2023-04-12T19:49:10.511Z,1.10
2023-04-12T19:51:39.595Z,1.40
2023-04-12T19:54:10.618Z,1.38
2023-04-12T19:56:37.827Z,0.90
2023-04-12T19:59:11.567Z,0.30
2023-04-12T20:01:51.250Z,0.30
2023-04-12T20:04:22.263Z,0.30
2023-04-12T20:06:52.691Z,0.40
2023-04-12T20:09:22.444Z,0.40
2023-04-12T20:11:50.531Z,0.40
2023-04-12T20:14:20.540Z,0.43
2023-04-12T20:16:48.652Z,0.65
2023-04-12T20:19:16.678Z,0.30
2023-04-12T20:21:44.857Z,0.40
2023-04-12T20:24:12.655Z,0.30
2023-04-12T20:26:39.965Z,0.40
2023-04-12T20:29:06.900Z,0.50
2023-04-12T20:31:34.759Z,0.20
2023-04-12T20:34:01.814Z,0.40
2023-04-12T20:36:30.673Z,0.43
2023-04-12T20:38:58.913Z,0.28
2023-04-12T20:41:27.351Z,0.30
2023-04-12T20:43:55.015Z,0.30
2023-04-12T20:46:26.363Z,0.30
2023-04-12T20:48:56.561Z,0.32
2023-04-12T20:51:24.953Z,0.47
2023-04-12T20:53:52.242Z,0.50
2023-04-12T20:56:19.093Z,0.30
2023-04-12T20:58:49.866Z,0.40
2023-04-12T21:01:16.661Z,0.43
2023-04-12T21:03:43.549Z,0.40
2023-04-12T21:06:11.028Z,0.35
2023-04-12T21:08:38.918Z,0.50
2023-04-12T21:11:06.216Z,0.30
2023-04-12T21:13:45.272Z,0.40
2023-04-12T21:16:15.837Z,0.30
2023-04-12T21:18:42.776Z,0.30
2023-04-12T21:21:09.411Z,0.40
2023-04-12T21:23:35.938Z,0.60
2023-04-12T21:26:02.504Z,0.28
2023-04-12T21:28:29.841Z,0.52
2023-04-12T21:30:58.181Z,0.25
2023-04-12T21:33:25.043Z,0.30
2023-04-12T21:35:55.926Z,0.43
2023-04-12T21:38:23.441Z,0.45
2023-04-12T21:40:50.222Z,0.50
2023-04-12T21:43:17.309Z,0.38
2023-04-12T21:45:44.037Z,0.40
2023-04-12T21:48:11.148Z,0.45
2023-04-12T21:50:38.074Z,0.40
2023-04-12T21:53:04.588Z,0.40
2023-04-12T21:55:31.212Z,0.28
2023-04-12T21:57:57.833Z,0.30
2023-04-12T22:00:27.204Z,0.30
2023-04-12T22:02:53.895Z,0.30
2023-04-12T22:05:20.853Z,0.30
2023-04-12T22:07:47.728Z,0.40
2023-04-12T22:10:14.863Z,0.32
2023-04-12T22:12:41.406Z,0.25
2023-04-12T22:15:09.088Z,0.40
2023-04-12T22:17:35.782Z,0.40
2023-04-12T22:20:03.839Z,0.40
2023-04-12T22:22:31.831Z,0.30
2023-04-12T22:24:58.308Z,0.77
2023-04-12T22:27:26.523Z,0.40
2023-04-12T22:29:53.700Z,0.30
2023-04-12T22:32:20.729Z,0.43
2023-04-12T22:34:54.879Z,0.40
2023-04-12T22:37:28.357Z,1.50
2023-04-12T22:39:55.094Z,1.38
2023-04-12T22:42:26.465Z,0.60
2023-04-12T22:44:54.212Z,0.45
2023-04-12T22:47:20.776Z,0.55
2023-04-12T22:49:50.666Z,0.60
2023-04-12T22:52:17.731Z,0.60
2023-04-12T22:54:44.569Z,0.60
2023-04-12T22:57:11.056Z,0.82
2023-04-12T22:59:37.562Z,0.43
2023-04-12T23:02:04.476Z,0.52
2023-04-12T23:04:31.023Z,0.50
2023-04-12T23:06:57.554Z,0.40
2023-04-12T23:09:24.143Z,0.60
2023-04-12T23:11:51.553Z,0.63
2023-04-12T23:14:18.082Z,0.50
2023-04-12T23:16:46.132Z,0.50
2023-04-12T23:19:14.727Z,0.40
2023-04-12T23:21:41.852Z,0.50
2023-04-12T23:24:08.494Z,0.77
2023-04-12T23:26:35.885Z,1.13
2023-04-12T23:29:03.641Z,0.50
2023-04-12T23:31:32.305Z,0.55
2023-04-12T23:34:06.105Z,0.90
2023-04-12T23:36:33.628Z,0.75
2023-04-12T23:39:00.368Z,0.50
2023-04-12T23:41:31.611Z,0.40
2023-04-12T23:43:58.855Z,1.35
2023-04-12T23:46:27.180Z,0.88
2023-04-12T23:48:53.887Z,0.70
2023-04-12T23:51:20.466Z,0.40
2023-04-12T23:53:47.147Z,0.60
2023-04-12T23:56:13.606Z,0.68
2023-04-12T23:58:40.103Z,0.70
